Wetter Infos

Wetter-Informationen für den Flugplatz Hof

Die wichtigsten und aktuellen Wetterdaten für den Flugplatz Hof-Plauen sowie für die Umgebung haben wir hier zusammengestellt.

METARs

EDQM 160820Z 12003KT 080V190 CAVOK 15/10 Q1021

EDDN 160850Z VRB01KT CAVOK 17/10 Q1021 BECMG 29006KT

EDDP 160850Z 36007KT 9999 -RA BKN018 BKN026 13/10 Q1020 TEMPO BKN013

EDDC 160850Z 26004KT 210V320 9999 BKN018 BKN040 15/10 Q1020 TEMPO BKN012

Hof Wetter

DWD – Abruf von Luftsportberichten HIER


Aktuelles Niederschlagsradar

Quelle: © Deutscher Wetterdienst
Quelle: Deutscher Wetterdienst